Time;durP1;ratioP1;P1;durP2;ratioP2;P2;SDS_P1;SDS_P2;PMS_P1;PMS_P2;Temp;Humidity;BMP_temperature;BMP_pressure;BME280_temperature;BME280_humidity;BME280_pressure;Samples;Min_cycle;Max_cycle;Signal;HPM_P1;HPM_P2
2023/03/23 00:01:30;;;;;;;8.55;7.68;;;10.90;99.90;;;;;;4986148;28;20205;-68
2023/03/23 00:03:57;;;;;;;7.93;7.13;;;11.00;99.90;;;;;;4992993;28;20228;-68
2023/03/23 00:06:26;;;;;;;8.93;7.60;;;11.00;99.90;;;;;;4996492;28;20771;-68
2023/03/23 00:08:59;;;;;;;10.63;8.27;;;10.90;99.90;;;;;;4970226;28;20202;-68
2023/03/23 00:11:28;;;;;;;8.40;7.45;;;11.00;99.90;;;;;;5003931;28;20697;-68
2023/03/23 00:14:00;;;;;;;9.88;7.78;;;11.00;99.90;;;;;;4986664;28;20236;-68
2023/03/23 00:16:30;;;;;;;11.10;7.43;;;11.00;99.90;;;;;;5003954;28;20202;-68
2023/03/23 00:18:59;;;;;;;9.25;7.65;;;11.00;99.90;;;;;;4983419;28;20209;-68
2023/03/23 00:21:32;;;;;;;9.68;7.95;;;11.10;99.90;;;;;;4992842;28;20311;-68
2023/03/23 00:24:00;;;;;;;8.10;7.35;;;11.00;99.90;;;;;;4989821;28;21168;-68
2023/03/23 00:26:28;;;;;;;9.00;7.53;;;11.10;99.90;;;;;;4997385;28;20234;-68
2023/03/23 00:28:55;;;;;;;9.80;8.23;;;11.10;99.90;;;;;;4977664;28;21271;-68
2023/03/23 00:31:23;;;;;;;8.95;7.97;;;11.10;99.90;;;;;;4997051;28;20529;-68
2023/03/23 00:33:50;;;;;;;12.18;9.10;;;11.10;99.90;;;;;;4979411;28;20926;-68
2023/03/23 00:36:17;;;;;;;10.95;8.70;;;11.10;99.90;;;;;;4991596;28;20300;-68
2023/03/23 00:38:46;;;;;;;8.70;7.88;;;11.00;99.90;;;;;;4968443;28;20364;-68
2023/03/23 00:41:15;;;;;;;9.15;7.95;;;11.10;99.90;;;;;;5001865;28;20324;-68
2023/03/23 00:43:42;;;;;;;9.02;8.13;;;11.10;99.90;;;;;;5001628;28;20206;-68
2023/03/23 00:46:09;;;;;;;9.90;8.13;;;11.10;99.90;;;;;;4981922;28;20329;-68
2023/03/23 00:48:40;;;;;;;9.40;8.45;;;11.10;99.90;;;;;;4992545;28;20202;-68
2023/03/23 00:51:10;;;;;;;9.13;7.40;;;11.00;99.90;;;;;;4985584;28;20639;-68
2023/03/23 00:53:37;;;;;;;9.95;8.27;;;11.10;99.90;;;;;;4973484;28;20610;-68
2023/03/23 00:56:06;;;;;;;8.25;7.45;;;11.10;99.90;;;;;;4998893;28;20436;-69
2023/03/23 00:58:32;;;;;;;9.30;8.30;;;11.10;99.90;;;;;;5006223;28;20209;-68
2023/03/23 01:00:59;;;;;;;9.27;8.27;;;11.10;99.90;;;;;;4969188;28;20709;-68
2023/03/23 01:03:28;;;;;;;9.70;8.35;;;11.10;99.90;;;;;;4983977;28;20214;-68
2023/03/23 01:05:56;;;;;;;8.70;7.68;;;11.10;99.90;;;;;;4991241;28;20311;-68
2023/03/23 01:08:24;;;;;;;10.32;8.43;;;11.10;99.90;;;;;;4968804;28;20646;-68
2023/03/23 01:10:53;;;;;;;10.48;7.85;;;11.10;99.90;;;;;;4998267;28;20210;-68
2023/03/23 01:13:22;;;;;;;9.40;7.95;;;11.10;99.90;;;;;;5001788;28;20599;-68
2023/03/23 01:15:49;;;;;;;12.55;7.72;;;11.20;99.90;;;;;;4994690;28;20214;-68
2023/03/23 01:18:16;;;;;;;11.10;7.32;;;11.20;99.90;;;;;;4975157;28;20311;-68
2023/03/23 01:20:42;;;;;;;8.38;7.53;;;11.20;99.90;;;;;;4988530;28;20211;-68
2023/03/23 01:23:10;;;;;;;10.82;7.85;;;11.20;99.90;;;;;;5000758;28;20274;-68
2023/03/23 01:25:38;;;;;;;8.98;7.72;;;11.10;99.90;;;;;;4966756;28;20338;-68
2023/03/23 01:28:07;;;;;;;10.88;7.55;;;11.20;99.90;;;;;;5006721;28;20285;-68
2023/03/23 01:30:34;;;;;;;9.35;7.60;;;11.10;99.90;;;;;;5002842;28;20210;-68
2023/03/23 01:33:01;;;;;;;7.72;6.68;;;11.10;99.90;;;;;;4992280;28;20202;-68
2023/03/23 01:35:28;;;;;;;7.47;6.75;;;11.20;99.90;;;;;;4981212;28;20205;-68
2023/03/23 01:37:55;;;;;;;9.75;8.07;;;11.20;99.90;;;;;;5000792;28;20212;-68
2023/03/23 01:40:23;;;;;;;8.25;7.22;;;11.20;99.90;;;;;;4968322;28;20210;-68
2023/03/23 01:42:50;;;;;;;8.15;7.20;;;11.20;99.90;;;;;;5005941;28;20938;-68
2023/03/23 01:45:27;;;;;;;11.23;8.10;;;11.20;99.90;;;;;;5002639;28;20198;-68
2023/03/23 01:48:02;;;;;;;10.75;7.03;;;11.20;99.90;;;;;;4993617;28;20250;-68
2023/03/23 01:50:34;;;;;;;7.25;6.22;;;11.20;99.90;;;;;;4976251;28;20910;-68
2023/03/23 01:53:03;;;;;;;10.23;7.07;;;11.20;99.90;;;;;;5003382;28;20483;-68
2023/03/23 01:55:31;;;;;;;9.02;7.13;;;11.20;99.90;;;;;;4978008;28;20779;-68
2023/03/23 01:57:58;;;;;;;7.82;6.65;;;11.20;99.90;;;;;;5001815;28;20231;-68
2023/03/23 02:00:26;;;;;;;7.68;6.40;;;11.20;99.90;;;;;;5002818;28;20751;-68
2023/03/23 02:02:55;;;;;;;7.00;6.10;;;11.20;99.90;;;;;;4986010;28;20229;-68
2023/03/23 02:05:28;;;;;;;9.38;6.68;;;11.20;99.90;;;;;;4979209;28;20710;-68
2023/03/23 02:07:58;;;;;;;8.10;6.47;;;11.20;99.90;;;;;;4992760;28;20459;-68
2023/03/23 02:10:25;;;;;;;8.65;5.88;;;11.20;99.90;;;;;;4975690;28;20304;-68
2023/03/23 02:12:53;;;;;;;6.43;5.55;;;11.20;99.90;;;;;;4984515;28;20400;-68
2023/03/23 02:15:22;;;;;;;7.05;5.95;;;11.20;99.90;;;;;;5002800;28;20580;-68
2023/03/23 02:17:58;;;;;;;8.82;6.00;;;11.30;99.90;;;;;;4990903;28;20314;-68
2023/03/23 02:20:54;;;;;;;8.88;6.07;;;11.20;99.90;;;;;;4988772;28;20198;-68
2023/03/23 02:23:50;;;;;;;9.18;6.45;;;11.20;99.90;;;;;;5007301;28;20198;-68
2023/03/23 02:26:35;;;;;;;6.63;5.05;;;11.20;99.90;;;;;;4968852;28;20225;-68
2023/03/23 02:29:26;;;;;;;8.38;5.43;;;11.20;99.90;;;;;;5002746;28;20355;-68
2023/03/23 02:32:21;;;;;;;7.07;5.57;;;11.20;99.90;;;;;;4999007;28;20469;-68
2023/03/23 02:34:52;;;;;;;5.75;5.15;;;11.20;99.90;;;;;;4984827;28;20214;-68
2023/03/23 02:37:24;;;;;;;7.40;5.18;;;11.20;99.90;;;;;;4992472;28;20193;-68
2023/03/23 02:39:53;;;;;;;6.78;5.30;;;11.20;99.90;;;;;;4968500;28;21919;-68
2023/03/23 02:42:24;;;;;;;8.88;5.40;;;11.30;99.90;;;;;;4985017;28;20206;-68
2023/03/23 02:44:53;;;;;;;6.20;4.93;;;11.30;99.90;;;;;;4998373;28;20555;-68
2023/03/23 02:47:23;;;;;;;7.93;5.88;;;11.30;99.90;;;;;;4985905;28;20230;-68
2023/03/23 02:49:55;;;;;;;8.95;5.95;;;11.20;99.90;;;;;;4995511;28;20209;-68
2023/03/23 02:52:26;;;;;;;6.32;4.93;;;11.20;99.90;;;;;;4972012;28;20210;-68
2023/03/23 02:54:55;;;;;;;6.80;5.13;;;11.20;99.90;;;;;;4996690;28;20690;-68
2023/03/23 02:57:24;;;;;;;6.93;4.45;;;11.20;99.90;;;;;;4972955;28;25198;-68
2023/03/23 02:59:51;;;;;;;6.72;4.57;;;11.20;99.90;;;;;;4996503;28;20505;-68
2023/03/23 03:02:40;;;;;;;7.57;4.60;;;11.20;99.90;;;;;;4996391;28;20209;-68
2023/03/23 03:05:22;;;;;;;6.82;4.43;;;11.20;99.90;;;;;;4974847;28;20203;-68
2023/03/23 03:08:00;;;;;;;6.68;4.47;;;11.20;99.90;;;;;;4943306;28;20227;-68
2023/03/23 03:10:32;;;;;;;7.78;4.88;;;11.20;99.90;;;;;;4977052;28;20206;-68
2023/03/23 03:13:09;;;;;;;5.80;4.10;;;11.20;99.90;;;;;;4943404;28;20237;-68
2023/03/23 03:15:38;;;;;;;7.95;4.40;;;11.20;99.90;;;;;;4960924;28;20597;-68
2023/03/23 03:18:12;;;;;;;6.90;4.57;;;11.20;99.90;;;;;;4976835;28;20415;-68
2023/03/23 03:20:46;;;;;;;7.93;4.57;;;11.20;99.90;;;;;;4972223;28;20199;-68
2023/03/23 03:23:14;;;;;;;9.10;4.75;;;11.20;99.90;;;;;;4976257;28;20638;-68
2023/03/23 03:25:47;;;;;;;6.55;4.25;;;11.10;99.90;;;;;;4998034;28;20194;-68
2023/03/23 03:28:15;;;;;;;6.63;4.63;;;11.10;99.90;;;;;;4973268;28;20446;-68
2023/03/23 03:30:44;;;;;;;7.13;4.13;;;11.10;99.90;;;;;;5000895;28;20797;-68
2023/03/23 03:33:12;;;;;;;5.97;4.35;;;11.10;99.90;;;;;;5001593;28;20217;-68
2023/03/23 03:35:42;;;;;;;6.15;4.00;;;11.10;99.90;;;;;;4997400;28;20207;-68
2023/03/23 03:38:11;;;;;;;5.00;4.15;;;11.10;99.90;;;;;;5000814;28;20199;-68
2023/03/23 03:40:38;;;;;;;6.60;4.60;;;11.10;99.90;;;;;;4985465;28;20199;-68
2023/03/23 03:43:06;;;;;;;9.00;4.45;;;11.10;99.90;;;;;;5005318;28;20704;-68
2023/03/23 03:45:33;;;;;;;6.07;3.97;;;11.20;99.90;;;;;;4972308;28;20685;-68
2023/03/23 03:48:01;;;;;;;6.35;4.75;;;11.10;99.90;;;;;;5005611;28;20233;-68
2023/03/23 03:50:28;;;;;;;7.18;4.45;;;11.10;99.90;;;;;;5001023;28;20206;-68
2023/03/23 03:52:57;;;;;;;5.18;4.63;;;11.10;99.90;;;;;;5000551;28;20490;-68
2023/03/23 03:55:24;;;;;;;6.85;4.22;;;11.10;99.90;;;;;;4988085;28;20252;-68
2023/03/23 03:57:51;;;;;;;5.43;3.95;;;11.10;99.90;;;;;;5004329;28;20217;-68
2023/03/23 04:00:19;;;;;;;6.53;3.97;;;11.10;99.90;;;;;;4968777;28;20233;-68
2023/03/23 04:02:51;;;;;;;4.75;3.83;;;11.10;99.90;;;;;;5005139;28;20214;-68
2023/03/23 04:05:20;;;;;;;5.07;4.10;;;11.10;99.90;;;;;;4991444;28;21516;-68
2023/03/23 04:07:49;;;;;;;6.00;4.28;;;11.10;99.90;;;;;;5004744;28;20234;-68
2023/03/23 04:10:19;;;;;;;6.72;4.05;;;11.10;99.90;;;;;;4984178;28;20206;-68
2023/03/23 04:12:46;;;;;;;6.45;3.95;;;11.10;99.90;;;;;;4992655;28;20267;-68
2023/03/23 04:15:13;;;;;;;6.47;4.53;;;11.10;99.90;;;;;;4966947;28;20489;-68
2023/03/23 04:17:40;;;;;;;6.47;4.05;;;11.10;99.90;;;;;;5006674;28;20214;-68
2023/03/23 04:20:16;;;;;;;4.60;4.18;;;11.10;99.90;;;;;;4994619;28;20248;-68
2023/03/23 04:22:44;;;;;;;9.07;4.38;;;11.10;99.90;;;;;;4999205;28;20209;-68
2023/03/23 04:25:14;;;;;;;5.30;4.07;;;11.10;99.90;;;;;;4984538;28;20808;-68
2023/03/23 04:27:46;;;;;;;7.05;4.55;;;11.10;99.90;;;;;;4988616;28;21278;-68
2023/03/23 04:30:14;;;;;;;5.32;4.15;;;11.00;99.90;;;;;;4966426;28;27153;-68
2023/03/23 04:32:42;;;;;;;5.55;4.28;;;11.10;99.90;;;;;;5006359;28;20197;-68
2023/03/23 04:35:12;;;;;;;9.45;5.20;;;11.20;99.90;;;;;;5003717;28;20206;-68
2023/03/23 04:37:40;;;;;;;7.20;5.07;;;11.20;99.90;;;;;;4996125;28;20213;-68
2023/03/23 04:40:11;;;;;;;9.48;4.55;;;11.20;99.90;;;;;;5001843;28;20202;-68
2023/03/23 04:42:39;;;;;;;8.25;4.88;;;11.20;99.90;;;;;;4980487;28;20226;-68
2023/03/23 04:45:09;;;;;;;7.82;5.03;;;11.20;99.90;;;;;;4995317;28;20197;-68
2023/03/23 04:47:40;;;;;;;7.80;4.80;;;11.20;99.90;;;;;;4952353;28;20230;-68
2023/03/23 04:50:09;;;;;;;5.18;4.63;;;11.10;99.90;;;;;;4994489;28;20629;-68
2023/03/23 04:52:37;;;;;;;6.82;4.38;;;11.10;99.90;;;;;;5003346;28;20759;-68
2023/03/23 04:55:06;;;;;;;6.60;4.47;;;11.10;99.90;;;;;;4993823;28;20916;-68
2023/03/23 04:57:33;;;;;;;6.50;4.32;;;11.10;99.90;;;;;;4985350;28;20207;-68
2023/03/23 05:00:00;;;;;;;5.95;4.45;;;11.10;99.90;;;;;;4966711;28;20996;-68
2023/03/23 05:02:30;;;;;;;7.05;4.10;;;11.00;99.90;;;;;;4952598;28;20328;-68
2023/03/23 05:04:58;;;;;;;6.78;4.43;;;11.10;99.90;;;;;;4965601;28;20206;-68
2023/03/23 05:07:24;;;;;;;6.50;4.15;;;11.10;99.90;;;;;;4984185;28;20585;-68
2023/03/23 05:09:52;;;;;;;6.20;4.15;;;11.10;99.90;;;;;;4995356;28;20205;-68
2023/03/23 05:12:19;;;;;;;5.32;3.95;;;11.10;99.90;;;;;;4980239;28;20230;-68
2023/03/23 05:14:46;;;;;;;4.22;3.72;;;11.20;99.90;;;;;;4996661;28;20210;-68
2023/03/23 05:17:18;;;;;;;10.18;4.00;;;11.20;99.90;;;;;;4954412;28;20410;-68
2023/03/23 05:19:47;;;;;;;5.40;3.83;;;11.20;99.90;;;;;;4982025;28;20218;-68
2023/03/23 05:22:14;;;;;;;4.97;3.97;;;11.20;99.90;;;;;;4985898;28;20254;-69
2023/03/23 05:24:42;;;;;;;5.03;3.88;;;11.20;99.90;;;;;;4985566;28;20655;-68
2023/03/23 05:27:09;;;;;;;5.28;4.00;;;11.20;99.90;;;;;;4991903;28;20300;-68
2023/03/23 05:29:37;;;;;;;8.77;4.25;;;11.20;99.90;;;;;;4979348;28;20535;-68
2023/03/23 05:32:05;;;;;;;6.10;3.90;;;11.20;99.90;;;;;;4970683;28;20202;-68
2023/03/23 05:34:33;;;;;;;7.00;4.20;;;11.20;99.90;;;;;;4970094;28;20257;-68
2023/03/23 05:37:01;;;;;;;5.80;3.90;;;11.20;99.90;;;;;;4986083;28;20819;-68
2023/03/23 05:39:29;;;;;;;9.35;4.35;;;11.20;99.90;;;;;;4987036;28;20230;-68
2023/03/23 05:41:56;;;;;;;5.93;4.43;;;11.20;99.90;;;;;;4999573;28;21312;-68
2023/03/23 05:44:23;;;;;;;9.45;5.03;;;11.10;99.90;;;;;;4981202;28;20221;-68
2023/03/23 05:46:50;;;;;;;5.70;4.03;;;11.20;99.90;;;;;;4992517;28;20206;-68
2023/03/23 05:49:17;;;;;;;7.15;3.97;;;11.20;99.90;;;;;;4976218;28;20771;-68
2023/03/23 05:51:45;;;;;;;5.43;3.90;;;11.20;99.90;;;;;;4979257;28;20207;-68
2023/03/23 05:54:14;;;;;;;6.10;4.30;;;11.20;99.90;;;;;;5000631;28;20264;-68
2023/03/23 05:56:42;;;;;;;7.82;4.38;;;11.10;99.90;;;;;;4986443;28;20220;-68
2023/03/23 05:59:10;;;;;;;5.45;3.92;;;11.10;99.90;;;;;;4997293;28;20871;-68
2023/03/23 06:01:37;;;;;;;6.80;3.95;;;11.10;99.90;;;;;;4979698;28;20328;-68
2023/03/23 06:04:05;;;;;;;6.60;4.00;;;11.10;99.90;;;;;;4968399;28;20213;-68
2023/03/23 06:06:32;;;;;;;4.93;3.85;;;11.20;99.90;;;;;;4990926;28;22026;-68
2023/03/23 06:08:59;;;;;;;8.07;3.95;;;11.10;99.90;;;;;;4983067;28;20612;-68
2023/03/23 06:11:28;;;;;;;8.27;4.10;;;11.20;99.90;;;;;;4984791;28;20202;-68
2023/03/23 06:13:55;;;;;;;5.28;3.70;;;11.10;99.90;;;;;;4997952;28;20218;-68
2023/03/23 06:16:22;;;;;;;6.03;4.43;;;11.20;99.90;;;;;;4968651;28;20922;-68
2023/03/23 06:18:49;;;;;;;4.13;3.55;;;11.20;99.90;;;;;;4960689;28;20310;-69
2023/03/23 06:21:18;;;;;;;6.10;4.15;;;11.30;99.90;;;;;;5003430;28;20914;-68
2023/03/23 06:23:45;;;;;;;5.07;3.75;;;11.30;99.90;;;;;;4993610;28;20210;-68
2023/03/23 06:26:14;;;;;;;5.25;3.80;;;11.30;99.90;;;;;;4984856;28;20232;-68
2023/03/23 06:28:42;;;;;;;5.70;4.38;;;11.40;99.90;;;;;;4990931;28;20226;-68
2023/03/23 06:31:09;;;;;;;5.93;4.15;;;11.40;99.90;;;;;;4985927;28;20203;-68
2023/03/23 06:33:37;;;;;;;11.48;3.90;;;11.50;99.90;;;;;;4973762;28;20249;-68
2023/03/23 06:36:06;;;;;;;7.13;4.03;;;11.50;99.90;;;;;;4998794;28;20309;-68
2023/03/23 06:38:33;;;;;;;5.95;3.95;;;11.50;99.90;;;;;;4990661;28;20392;-68
2023/03/23 06:41:00;;;;;;;8.48;3.78;;;11.50;99.90;;;;;;4997447;28;20202;-67
2023/03/23 06:43:26;;;;;;;7.82;3.45;;;11.50;99.90;;;;;;4994712;28;20850;-68
2023/03/23 06:45:54;;;;;;;7.38;4.20;;;11.50;99.90;;;;;;4986897;28;20209;-69
2023/03/23 06:48:21;;;;;;;7.45;4.43;;;11.40;99.90;;;;;;5003670;28;20774;-69
2023/03/23 06:50:48;;;;;;;8.68;4.65;;;11.40;99.90;;;;;;4978538;28;20209;-69
2023/03/23 06:53:16;;;;;;;5.85;3.90;;;11.40;99.90;;;;;;4988029;28;20480;-69
2023/03/23 06:55:45;;;;;;;5.57;3.97;;;11.30;99.90;;;;;;4991143;28;20226;-69
2023/03/23 06:58:11;;;;;;;7.22;4.38;;;11.30;99.90;;;;;;4993031;28;20208;-69
2023/03/23 07:00:40;;;;;;;9.48;4.18;;;11.30;99.90;;;;;;4997164;28;20656;-70
2023/03/23 07:03:09;;;;;;;13.07;4.45;;;11.20;99.90;;;;;;4987023;28;20206;-70
2023/03/23 07:05:36;;;;;;;3.22;1.95;;;11.20;99.90;;;;;;4942843;28;20847;-69
2023/03/23 07:08:03;;;;;;;8.65;2.38;;;10.90;99.90;;;;;;4965058;28;20226;-69
2023/03/23 07:10:31;;;;;;;3.70;2.55;;;11.00;99.90;;;;;;4990702;28;20260;-69
2023/03/23 07:12:59;;;;;;;4.95;3.35;;;11.10;99.90;;;;;;4984618;28;20254;-69
2023/03/23 07:15:26;;;;;;;6.13;3.33;;;11.10;99.90;;;;;;4996988;28;20736;-69
2023/03/23 07:17:54;;;;;;;7.80;3.47;;;11.20;99.90;;;;;;4984137;28;20271;-70
2023/03/23 07:20:22;;;;;;;5.00;2.78;;;11.10;99.90;;;;;;5005758;28;20291;-70
2023/03/23 07:22:50;;;;;;;9.18;3.92;;;11.10;99.90;;;;;;4973541;28;20237;-70
2023/03/23 07:25:18;;;;;;;3.22;2.40;;;11.20;99.90;;;;;;5008316;28;20337;-69
2023/03/23 07:27:46;;;;;;;5.00;2.47;;;11.10;99.90;;;;;;4985820;28;20332;-70
2023/03/23 07:30:14;;;;;;;3.55;2.63;;;11.10;99.90;;;;;;5012664;28;20728;-69
2023/03/23 07:32:41;;;;;;;4.57;2.33;;;11.10;99.90;;;;;;4988096;28;20972;-70
2023/03/23 07:35:08;;;;;;;6.32;2.05;;;11.10;99.90;;;;;;5009789;28;20198;-70
2023/03/23 07:37:37;;;;;;;6.07;2.70;;;11.10;99.90;;;;;;4965440;28;20212;-69
2023/03/23 07:40:14;;;;;;;5.43;2.92;;;11.10;99.90;;;;;;4999389;28;20225;-69
2023/03/23 07:42:41;;;;;;;4.95;1.90;;;11.10;99.90;;;;;;4986495;28;20408;-69
2023/03/23 07:45:09;;;;;;;4.25;2.17;;;11.10;99.90;;;;;;4993679;28;20214;-69
2023/03/23 07:47:36;;;;;;;4.97;1.70;;;11.10;99.90;;;;;;4987532;28;21043;-69
2023/03/23 07:50:03;;;;;;;5.57;2.13;;;11.10;99.90;;;;;;4996306;28;21590;-69
2023/03/23 07:52:30;;;;;;;7.45;2.08;;;11.10;99.90;;;;;;4970961;28;20682;-69
2023/03/23 07:54:58;;;;;;;6.97;1.90;;;11.00;99.90;;;;;;4993605;28;20244;-69
2023/03/23 07:57:26;;;;;;;5.25;1.98;;;11.10;99.90;;;;;;4978687;28;20217;-69
2023/03/23 07:59:52;;;;;;;6.35;2.10;;;11.10;99.90;;;;;;4986603;28;20676;-69
2023/03/23 08:02:20;;;;;;;7.55;1.73;;;11.10;99.90;;;;;;4976091;28;20437;-69
2023/03/23 08:04:47;;;;;;;10.00;2.63;;;11.10;99.90;;;;;;4978196;28;20202;-69
2023/03/23 08:07:16;;;;;;;6.88;2.10;;;11.10;99.90;;;;;;4972979;28;20675;-69
2023/03/23 08:09:43;;;;;;;7.68;1.90;;;11.10;99.90;;;;;;4975064;28;20295;-69
2023/03/23 08:12:11;;;;;;;4.72;1.40;;;11.10;99.90;;;;;;4991714;28;20194;-69
2023/03/23 08:14:39;;;;;;;5.40;1.75;;;11.10;99.90;;;;;;4994216;28;20202;-69
2023/03/23 08:17:06;;;;;;;4.80;1.42;;;11.20;99.90;;;;;;4981924;28;20340;-69
2023/03/23 08:19:36;;;;;;;4.93;1.65;;;11.20;99.90;;;;;;4975920;28;20206;-69
2023/03/23 08:22:03;;;;;;;8.25;1.98;;;11.40;99.90;;;;;;4965002;28;20195;-69
2023/03/23 08:24:30;;;;;;;11.68;1.70;;;11.50;99.90;;;;;;4996418;28;20561;-69
2023/03/23 08:26:57;;;;;;;8.10;1.80;;;11.50;99.90;;;;;;4999136;28;20240;-69
2023/03/23 08:29:25;;;;;;;4.10;1.90;;;11.50;99.90;;;;;;4995205;28;20226;-69
2023/03/23 08:31:53;;;;;;;8.75;1.83;;;11.50;99.90;;;;;;4993343;28;20198;-69
2023/03/23 08:34:20;;;;;;;7.15;1.80;;;11.50;99.90;;;;;;4988448;28;20210;-69
2023/03/23 08:36:47;;;;;;;10.40;2.55;;;11.50;99.90;;;;;;4991343;28;20209;-69
2023/03/23 08:39:15;;;;;;;7.07;2.15;;;11.60;99.90;;;;;;4969961;28;20731;-69
2023/03/23 08:41:44;;;;;;;7.80;1.77;;;11.60;99.90;;;;;;4981191;28;20767;-69
2023/03/23 08:44:12;;;;;;;6.55;1.88;;;11.60;99.90;;;;;;4976927;28;20319;-69
2023/03/23 08:46:40;;;;;;;8.23;1.65;;;11.60;99.90;;;;;;4989524;28;20206;-69
2023/03/23 08:49:07;;;;;;;6.05;1.95;;;11.60;99.90;;;;;;4976112;28;20223;-69
2023/03/23 08:51:35;;;;;;;6.88;1.98;;;11.60;99.90;;;;;;4996637;28;20205;-69
2023/03/23 08:54:02;;;;;;;10.52;2.25;;;11.70;99.90;;;;;;4989547;28;20284;-69
2023/03/23 08:56:29;;;;;;;6.88;2.25;;;11.70;99.90;;;;;;4992488;28;20254;-69
2023/03/23 08:58:56;;;;;;;10.07;2.45;;;11.80;99.90;;;;;;5011861;28;20206;-69
2023/03/23 09:01:23;;;;;;;10.45;2.63;;;11.80;99.90;;;;;;4959843;28;20494;-69
2023/03/23 09:03:51;;;;;;;6.57;2.20;;;11.90;99.90;;;;;;4991574;28;20244;-70
2023/03/23 09:06:18;;;;;;;8.73;2.33;;;11.90;99.90;;;;;;4992556;28;20841;-69
2023/03/23 09:08:45;;;;;;;6.47;2.60;;;12.00;99.90;;;;;;5003812;28;20227;-69
2023/03/23 09:11:13;;;;;;;12.85;2.60;;;12.10;99.90;;;;;;4976361;28;20198;-69
2023/03/23 09:13:40;;;;;;;6.82;2.10;;;12.10;99.80;;;;;;4992413;28;20209;-69
2023/03/23 09:16:08;;;;;;;9.43;2.42;;;12.20;98.00;;;;;;4983369;28;20210;-69
2023/03/23 09:18:35;;;;;;;9.65;2.47;;;12.20;95.70;;;;;;4965621;28;20214;-69
2023/03/23 09:21:05;;;;;;;12.48;3.20;;;12.30;96.80;;;;;;4989087;28;20213;-69
2023/03/23 09:23:32;;;;;;;10.68;2.58;;;12.30;93.00;;;;;;4984921;28;20878;-69
2023/03/23 09:26:01;;;;;;;11.80;2.20;;;12.30;93.70;;;;;;4967881;28;20205;-69
2023/03/23 09:28:28;;;;;;;11.30;3.30;;;12.40;90.90;;;;;;4976999;28;20739;-69
2023/03/23 09:30:57;;;;;;;14.25;2.70;;;12.30;78.00;;;;;;4990825;28;20845;-69
2023/03/23 09:33:24;;;;;;;9.15;2.50;;;12.30;72.50;;;;;;4983464;28;20206;-69
2023/03/23 09:35:51;;;;;;;10.93;2.97;;;12.30;71.60;;;;;;4984555;28;20233;-69
2023/03/23 09:38:20;;;;;;;12.95;2.22;;;12.30;71.00;;;;;;4982933;28;20212;-69
2023/03/23 09:40:49;;;;;;;8.60;2.13;;;12.30;63.80;;;;;;4987434;28;20204;-70
2023/03/23 09:43:44;;;;;;;7.35;2.70;;;12.50;68.40;;;;;;4976295;28;20624;-69
2023/03/23 09:46:36;;;;;;;6.80;2.25;;;12.40;74.60;;;;;;4976799;28;20213;-69
2023/03/23 09:49:09;;;;;;;13.55;3.63;;;12.30;59.90;;;;;;4963165;28;20731;-69
2023/03/23 09:51:44;;;;;;;10.60;2.45;;;12.40;52.00;;;;;;4992090;28;22382;-69
2023/03/23 09:54:20;;;;;;;10.55;2.50;;;12.40;57.50;;;;;;4975037;28;20384;-69
2023/03/23 09:56:48;;;;;;;10.82;2.78;;;12.40;57.10;;;;;;4974602;28;20529;-69
2023/03/23 09:59:21;;;;;;;8.63;2.20;;;12.40;49.90;;;;;;5000574;28;20403;-70
2023/03/23 10:01:51;;;;;;;10.88;2.00;;;12.50;55.40;;;;;;4989748;28;20763;-70
2023/03/23 10:04:29;;;;;;;7.97;2.08;;;12.40;53.70;;;;;;4969902;28;20203;-69
2023/03/23 10:07:00;;;;;;;9.75;2.65;;;12.50;59.70;;;;;;5009249;28;20708;-69
2023/03/23 10:09:30;;;;;;;11.85;2.58;;;12.50;59.60;;;;;;4983946;28;20222;-69
2023/03/23 10:12:08;;;;;;;10.48;2.20;;;12.50;54.80;;;;;;4994534;28;20193;-69
2023/03/23 10:14:50;;;;;;;11.80;1.98;;;12.50;39.70;;;;;;4979230;28;20680;-69
2023/03/23 10:17:23;;;;;;;4.57;1.95;;;12.50;45.20;;;;;;4999852;28;20221;-69
2023/03/23 10:19:58;;;;;;;6.53;2.20;;;12.40;46.60;;;;;;4995061;28;20197;-69
2023/03/23 10:22:30;;;;;;;8.95;2.42;;;12.40;58.50;;;;;;4989033;28;20368;-69
2023/03/23 10:25:08;;;;;;;6.25;2.10;;;12.50;47.10;;;;;;4982191;28;20213;-69
2023/03/23 10:27:43;;;;;;;7.95;2.28;;;12.50;45.60;;;;;;4973917;28;21160;-69
2023/03/23 10:30:18;;;;;;;6.40;2.38;;;12.50;53.70;;;;;;4996811;28;20889;-69
2023/03/23 10:32:50;;;;;;;8.25;2.45;;;12.50;74.40;;;;;;4990947;28;20524;-69
2023/03/23 10:35:20;;;;;;;8.93;2.17;;;12.50;84.60;;;;;;4987203;28;20211;-69
2023/03/23 10:37:50;;;;;;;8.68;2.50;;;12.40;90.20;;;;;;4976842;28;20228;-69
2023/03/23 10:40:23;;;;;;;9.57;2.38;;;12.40;93.20;;;;;;4974303;28;20220;-69
2023/03/23 10:42:51;;;;;;;8.82;2.70;;;12.40;94.10;;;;;;5006736;28;20216;-70
2023/03/23 10:45:22;;;;;;;7.30;2.63;;;12.50;96.00;;;;;;4961548;28;20213;-69
2023/03/23 10:47:53;;;;;;;6.28;2.53;;;12.50;97.20;;;;;;5002794;28;20734;-70
2023/03/23 10:50:26;;;;;;;5.50;2.60;;;12.60;93.90;;;;;;4999601;28;20230;-70
2023/03/23 10:52:55;;;;;;;7.50;2.70;;;12.50;90.90;;;;;;4993740;28;20218;-69
2023/03/23 10:55:26;;;;;;;7.85;2.60;;;12.50;88.50;;;;;;4991054;28;20222;-69
2023/03/23 10:58:03;;;;;;;7.28;2.60;;;12.50;83.40;;;;;;5009750;28;20209;-69
2023/03/23 11:00:31;;;;;;;10.32;2.35;;;12.50;75.50;;;;;;4977235;28;20205;-69
2023/03/23 11:03:01;;;;;;;13.05;2.47;;;12.50;75.70;;;;;;5002870;28;20210;-69
2023/03/23 11:05:34;;;;;;;9.75;2.95;;;12.60;57.40;;;;;;4990813;28;20574;-69
2023/03/23 11:08:02;;;;;;;8.65;2.50;;;12.70;52.60;;;;;;5002767;28;20216;-69
2023/03/23 11:10:41;;;;;;;12.20;2.55;;;12.80;53.50;;;;;;4994556;28;20611;-69
2023/03/23 11:13:14;;;;;;;12.43;2.17;;;12.70;44.00;;;;;;5007660;28;20367;-69
2023/03/23 11:15:44;;;;;;;7.45;2.20;;;12.70;45.40;;;;;;4961905;28;20557;-68
2023/03/23 11:18:14;;;;;;;11.13;3.03;;;12.60;51.10;;;;;;4961367;28;20967;-69
2023/03/23 11:20:43;;;;;;;9.10;2.75;;;12.60;56.90;;;;;;5005586;28;20630;-69
2023/03/23 11:23:20;;;;;;;4.13;2.00;;;12.70;67.70;;;;;;4980282;28;20209;-69
2023/03/23 11:26:10;;;;;;;7.10;3.10;;;12.70;70.90;;;;;;5013161;28;20260;-68
2023/03/23 11:28:39;;;;;;;6.82;2.83;;;12.70;67.00;;;;;;5011358;28;20201;-68
2023/03/23 11:31:07;;;;;;;9.77;2.95;;;12.80;65.10;;;;;;4970734;28;20283;-69
2023/03/23 11:33:40;;;;;;;11.85;3.15;;;12.80;65.70;;;;;;4995368;28;20217;-68
2023/03/23 11:36:09;;;;;;;9.45;3.10;;;12.90;69.00;;;;;;5002768;28;21333;-68
2023/03/23 11:38:36;;;;;;;11.02;3.10;;;13.00;67.10;;;;;;4971732;28;20222;-68
2023/03/23 11:41:12;;;;;;;13.15;3.10;;;13.10;62.60;;;;;;5007378;28;20641;-68
2023/03/23 11:43:41;;;;;;;9.10;2.90;;;13.10;62.00;;;;;;4982642;28;20738;-68
2023/03/23 11:46:17;;;;;;;9.38;3.10;;;13.20;61.60;;;;;;4969505;28;21103;-69
2023/03/23 11:48:53;;;;;;;7.60;3.13;;;13.20;53.00;;;;;;4978903;28;20210;-68
2023/03/23 11:51:24;;;;;;;13.15;3.10;;;13.20;57.90;;;;;;5012013;28;20227;-68
2023/03/23 11:53:58;;;;;;;11.25;3.13;;;13.20;50.60;;;;;;4994151;28;20238;-68
2023/03/23 11:56:30;;;;;;;7.75;3.20;;;13.30;58.70;;;;;;4976665;28;20379;-68
2023/03/23 11:58:59;;;;;;;9.38;2.75;;;13.40;60.70;;;;;;4979851;28;20206;-68
2023/03/23 12:01:42;;;;;;;6.68;2.92;;;13.50;42.80;;;;;;4964998;22;20743;-68
2023/03/23 12:04:27;;;;;;;6.50;2.65;;;13.60;19.40;;;;;;4961935;28;20201;-68
2023/03/23 12:07:04;;;;;;;9.50;3.20;;;13.50;14.40;;;;;;5010412;28;20224;-68
2023/03/23 12:09:42;;;;;;;6.15;2.17;;;13.50;12.30;;;;;;4992397;28;20225;-68
2023/03/23 12:12:27;;;;;;;9.35;2.92;;;13.40;11.20;;;;;;5001485;28;20198;-68
2023/03/23 12:15:00;;;;;;;5.13;2.30;;;13.30;6.30;;;;;;5000893;28;20295;-68
2023/03/23 12:17:40;;;;;;;7.53;2.80;;;13.40;23.70;;;;;;4967644;28;20720;-68
2023/03/23 12:20:28;;;;;;;6.38;2.03;;;13.50;27.20;;;;;;5006218;28;20201;-68
2023/03/23 12:23:06;;;;;;;6.63;2.00;;;13.50;25.70;;;;;;5005241;28;20587;-68
2023/03/23 12:25:59;;;;;;;6.57;2.42;;;13.50;7.10;;;;;;4992113;28;20278;-68
2023/03/23 12:28:40;;;;;;;4.57;1.90;;;13.50;12.00;;;;;;4974258;28;20824;-68
2023/03/23 12:31:16;;;;;;;5.32;2.05;;;13.60;14.80;;;;;;5017308;28;20236;-68
2023/03/23 12:33:56;;;;;;;3.35;2.10;;;13.60;1.00;;;;;;4972407;28;20209;-68
2023/03/23 12:36:33;;;;;;;8.25;2.38;;;13.50;1.00;;;;;;5008117;28;20586;-68
2023/03/23 12:39:30;;;;;;;8.82;2.30;;;13.50;1.00;;;;;;5014676;28;20676;-68
2023/03/23 12:42:04;;;;;;;6.78;1.92;;;13.00;21.50;;;;;;5004930;28;20194;-67
2023/03/23 12:44:40;;;;;;;4.68;1.50;;;12.40;1.00;;;;;;5006705;28;20201;-67
2023/03/23 12:47:24;;;;;;;6.53;1.45;;;11.80;1.00;;;;;;4997865;28;20194;-68
2023/03/23 12:49:57;;;;;;;5.80;1.20;;;11.50;25.20;;;;;;4978322;28;20257;-68
2023/03/23 12:52:28;;;;;;;4.63;1.33;;;11.20;52.10;;;;;;5020810;28;20198;-68
2023/03/23 12:55:02;;;;;;;5.65;1.52;;;11.00;73.00;;;;;;5005301;28;20839;-68
2023/03/23 12:57:35;;;;;;;2.67;1.42;;;11.00;86.90;;;;;;4990520;28;21401;-69
2023/03/23 13:00:13;;;;;;;2.80;1.33;;;10.90;86.40;;;;;;4990348;28;20206;-69
2023/03/23 13:02:42;;;;;;;5.35;1.38;;;10.90;92.20;;;;;;5006333;28;20238;-69